Time;durP1;ratioP1;P1;durP2;ratioP2;P2;SDS_P1;SDS_P2;PMS_P1;PMS_P2;Temp;Humidity;BMP_temperature;BMP_pressure;BME280_temperature;BME280_humidity;BME280_pressure;Samples;Min_cycle;Max_cycle;Signal;HPM_P1;HPM_P2
2023/06/18 00:25:23;;;;;;;12.63;9.73;;;14.20;99.90;;;;;;5071498;28;20040;-93
2023/06/18 00:28:16;;;;;;;13.57;9.43;;;14.20;99.90;;;;;;5057134;28;20045;-86
2023/06/18 00:31:03;;;;;;;12.95;9.82;;;14.10;99.90;;;;;;5072208;28;20052;-86
2023/06/18 00:33:50;;;;;;;14.93;10.00;;;14.10;99.90;;;;;;5065694;28;20045;-87
2023/06/18 00:36:50;;;;;;;13.52;8.95;;;14.20;99.90;;;;;;5075207;28;20045;-86
2023/06/18 00:39:37;;;;;;;13.18;9.50;;;14.10;99.90;;;;;;5056688;28;20737;-86
2023/06/18 00:42:28;;;;;;;10.98;8.32;;;14.10;99.90;;;;;;5065152;28;20100;-88
2023/06/18 00:45:16;;;;;;;10.98;8.88;;;14.10;99.90;;;;;;5054714;28;20049;-87
2023/06/18 00:48:04;;;;;;;13.68;9.73;;;14.10;99.90;;;;;;5062659;28;20781;-86
2023/06/18 00:50:54;;;;;;;14.32;9.38;;;14.30;99.90;;;;;;5071601;28;20127;-87
2023/06/18 00:53:45;;;;;;;14.65;9.77;;;14.40;99.90;;;;;;5066392;28;20437;-86
2023/06/18 00:56:33;;;;;;;13.25;9.05;;;14.40;99.90;;;;;;5071575;28;20044;-86
2023/06/18 00:59:22;;;;;;;16.73;8.43;;;14.50;99.90;;;;;;5066216;28;20044;-86
2023/06/18 01:02:10;;;;;;;12.95;8.35;;;14.50;99.90;;;;;;5073800;28;20051;-87
2023/06/18 01:04:59;;;;;;;15.07;8.55;;;14.50;99.90;;;;;;5070518;28;20403;-88
2023/06/18 01:07:50;;;;;;;14.05;8.82;;;14.50;99.90;;;;;;5075984;28;20037;-87
2023/06/18 01:10:40;;;;;;;10.93;8.68;;;14.50;99.90;;;;;;5069658;28;20126;-86
2023/06/18 01:13:30;;;;;;;14.95;9.48;;;14.50;99.90;;;;;;5068315;28;20047;-86
2023/06/18 01:16:24;;;;;;;12.88;8.98;;;14.40;99.90;;;;;;5073839;28;20056;-85
2023/06/18 01:19:27;;;;;;;14.80;9.43;;;14.20;99.90;;;;;;5080552;28;20478;-86
2023/06/18 01:22:32;;;;;;;11.98;9.18;;;14.00;99.90;;;;;;5057499;28;20048;-86
2023/06/18 01:25:22;;;;;;;12.48;9.57;;;13.80;99.90;;;;;;5068432;28;20385;-86
2023/06/18 01:28:10;;;;;;;13.38;9.02;;;13.60;99.90;;;;;;5077018;28;20036;-86
2023/06/18 01:31:01;;;;;;;11.02;8.23;;;13.40;99.90;;;;;;5054070;28;20063;-88
2023/06/18 01:33:53;;;;;;;13.77;8.60;;;13.40;99.90;;;;;;5064519;28;20391;-85
2023/06/18 01:37:05;;;;;;;14.35;9.80;;;13.50;99.90;;;;;;5068714;28;20182;-86
2023/06/18 01:40:17;;;;;;;13.82;9.18;;;13.70;99.90;;;;;;5050572;28;20373;-87
2023/06/18 01:43:23;;;;;;;15.63;9.13;;;13.80;99.90;;;;;;5068802;28;20155;-86
2023/06/18 01:46:20;;;;;;;16.25;9.02;;;13.80;99.90;;;;;;5082666;28;20150;-87
2023/06/18 01:49:08;;;;;;;14.52;9.32;;;13.60;99.90;;;;;;5068179;28;20049;-87
2023/06/18 01:52:00;;;;;;;11.82;9.20;;;13.50;99.90;;;;;;5059195;28;20040;-87
2023/06/18 01:54:51;;;;;;;12.27;9.07;;;13.40;99.90;;;;;;5058146;28;20041;-87
2023/06/18 01:57:38;;;;;;;13.48;9.25;;;13.50;99.90;;;;;;5050741;28;20586;-87
2023/06/18 02:00:26;;;;;;;12.60;9.02;;;13.60;99.90;;;;;;5077155;28;20044;-87
2023/06/18 02:03:16;;;;;;;13.05;8.75;;;13.50;99.90;;;;;;5064753;28;20037;-88
2023/06/18 02:06:04;;;;;;;16.50;9.70;;;13.60;99.90;;;;;;5064140;28;20070;-87
2023/06/18 02:08:51;;;;;;;17.92;10.10;;;13.60;99.90;;;;;;5070478;28;20049;-86
2023/06/18 02:11:38;;;;;;;16.10;10.27;;;13.70;99.90;;;;;;5069413;28;20044;-88
2023/06/18 02:14:25;;;;;;;14.50;8.82;;;13.50;99.90;;;;;;5069258;28;20045;-86
2023/06/18 02:17:13;;;;;;;12.23;9.65;;;13.40;99.90;;;;;;5078300;28;20350;-87
2023/06/18 02:20:03;;;;;;;15.88;9.13;;;13.20;99.90;;;;;;5056524;28;20068;-87
2023/06/18 02:22:52;;;;;;;14.95;8.95;;;13.00;99.90;;;;;;5065466;28;20056;-87
2023/06/18 02:25:39;;;;;;;12.88;9.70;;;12.80;99.90;;;;;;5064849;28;20045;-87
2023/06/18 02:28:26;;;;;;;14.30;9.93;;;12.70;99.90;;;;;;5073333;28;20059;-87
2023/06/18 02:34:46;;;;;;;13.75;9.70;;;12.70;99.90;;;;;;5072328;28;20064;-87
2023/06/18 02:37:33;;;;;;;13.05;8.98;;;12.60;99.90;;;;;;5068899;28;20048;-87
2023/06/18 02:40:21;;;;;;;16.02;9.57;;;12.50;99.90;;;;;;5070416;28;20052;-88
2023/06/18 02:43:08;;;;;;;11.98;9.32;;;12.40;99.90;;;;;;5066322;28;20044;-87
2023/06/18 02:46:00;;;;;;;12.25;8.63;;;12.50;99.90;;;;;;5070766;28;20052;-87
2023/06/18 02:48:47;;;;;;;15.10;9.05;;;12.40;99.90;;;;;;5060330;28;20458;-87
2023/06/18 02:51:34;;;;;;;11.32;8.70;;;12.60;99.90;;;;;;5056755;28;20037;-87
2023/06/18 02:54:21;;;;;;;14.50;9.88;;;12.60;99.90;;;;;;5057787;28;20072;-87
2023/06/18 02:57:09;;;;;;;12.55;9.07;;;12.60;99.90;;;;;;5072953;28;20052;-87
2023/06/18 02:59:58;;;;;;;11.65;9.13;;;12.60;99.90;;;;;;5072727;28;20045;-87
2023/06/18 03:02:46;;;;;;;20.45;9.93;;;12.60;99.90;;;;;;5055536;28;20048;-86
2023/06/18 03:05:33;;;;;;;15.00;10.18;;;12.60;99.90;;;;;;5065327;28;20487;-85
2023/06/18 03:08:20;;;;;;;14.95;10.90;;;12.60;99.90;;;;;;5066279;28;20154;-87
2023/06/18 03:11:08;;;;;;;12.25;9.55;;;12.70;99.90;;;;;;5072141;28;20145;-87
2023/06/18 03:13:56;;;;;;;15.63;10.10;;;12.70;99.90;;;;;;5072776;28;20044;-86
2023/06/18 03:16:46;;;;;;;14.70;9.40;;;12.50;99.90;;;;;;5074619;28;20036;-87
2023/06/18 03:19:34;;;;;;;17.90;10.32;;;12.50;99.90;;;;;;5076139;28;20044;-87
2023/06/18 03:22:21;;;;;;;14.10;10.73;;;12.30;99.90;;;;;;5060982;28;20049;-86
2023/06/18 03:25:09;;;;;;;13.05;9.55;;;12.20;99.90;;;;;;5070624;28;20527;-87
2023/06/18 03:27:56;;;;;;;12.98;9.50;;;12.10;99.90;;;;;;5046145;28;20037;-87
2023/06/18 03:31:00;;;;;;;12.32;9.43;;;12.10;99.90;;;;;;5061216;28;20051;-86
2023/06/18 03:33:48;;;;;;;13.38;9.93;;;12.10;99.90;;;;;;5054095;28;20048;-86
2023/06/18 03:36:47;;;;;;;11.23;9.10;;;12.20;99.90;;;;;;5051644;28;20048;-87
2023/06/18 03:39:35;;;;;;;12.90;9.70;;;12.20;99.90;;;;;;5074399;28;20043;-86
2023/06/18 03:42:23;;;;;;;12.82;10.05;;;12.40;99.90;;;;;;5063429;28;20050;-87
2023/06/18 03:45:10;;;;;;;14.48;10.43;;;12.60;99.90;;;;;;5075336;28;20408;-86
2023/06/18 03:47:58;;;;;;;14.75;10.40;;;12.70;99.90;;;;;;5072291;28;20049;-85
2023/06/18 03:50:45;;;;;;;14.88;10.48;;;12.70;99.90;;;;;;5072238;28;20091;-85
2023/06/18 03:53:36;;;;;;;14.10;9.45;;;12.80;99.90;;;;;;5059620;28;20056;-86
2023/06/18 03:56:24;;;;;;;13.23;9.00;;;12.80;99.90;;;;;;5074067;28;20101;-86
2023/06/18 03:59:12;;;;;;;13.43;9.60;;;12.80;99.90;;;;;;5070360;28;20048;-87
2023/06/18 04:01:59;;;;;;;14.10;10.05;;;12.80;99.90;;;;;;5066627;28;20445;-85
2023/06/18 04:04:49;;;;;;;11.23;9.15;;;12.80;99.90;;;;;;5073582;28;20059;-86
2023/06/18 04:07:42;;;;;;;14.73;9.27;;;12.90;99.90;;;;;;5071095;28;20036;-85
2023/06/18 04:10:30;;;;;;;14.15;10.10;;;13.10;99.90;;;;;;5076142;28;20059;-86
2023/06/18 04:13:18;;;;;;;11.38;8.85;;;13.30;99.90;;;;;;5074007;28;20052;-87
2023/06/18 04:16:05;;;;;;;14.40;9.10;;;13.50;99.90;;;;;;5072674;28;20048;-87
2023/06/18 04:18:53;;;;;;;10.55;7.90;;;13.70;99.90;;;;;;5075873;28;20052;-87
2023/06/18 04:21:40;;;;;;;10.95;8.73;;;13.80;99.90;;;;;;5062378;28;20044;-87
2023/06/18 04:24:27;;;;;;;13.18;10.13;;;14.00;99.90;;;;;;5067730;28;20049;-87
2023/06/18 04:27:16;;;;;;;14.95;9.68;;;14.00;99.90;;;;;;5068134;28;20049;-86
2023/06/18 04:30:03;;;;;;;14.45;9.88;;;14.00;99.90;;;;;;5058689;28;20097;-88
2023/06/18 04:32:51;;;;;;;15.07;9.50;;;14.00;99.90;;;;;;5071850;28;20053;-86
2023/06/18 04:35:38;;;;;;;14.77;8.32;;;14.10;99.90;;;;;;5068346;28;20094;-87
2023/06/18 04:38:26;;;;;;;16.40;9.00;;;14.20;99.90;;;;;;5067033;28;20142;-86
2023/06/18 04:41:14;;;;;;;12.40;9.02;;;14.20;99.90;;;;;;5067285;28;20049;-87
2023/06/18 04:44:04;;;;;;;11.02;8.10;;;14.40;99.90;;;;;;5048387;28;20044;-87
2023/06/18 04:46:51;;;;;;;12.30;8.43;;;14.60;99.90;;;;;;5073905;28;20044;-88
2023/06/18 04:49:39;;;;;;;12.48;8.43;;;14.80;99.90;;;;;;5076212;28;20044;-88
2023/06/18 04:52:26;;;;;;;14.95;7.93;;;15.00;99.90;;;;;;5072545;28;20056;-86
2023/06/18 04:55:14;;;;;;;12.07;8.25;;;15.10;99.90;;;;;;5070420;28;20040;-88
2023/06/18 04:58:01;;;;;;;13.00;8.65;;;15.20;99.90;;;;;;5057976;28;20056;-89
2023/06/18 05:00:48;;;;;;;13.23;8.10;;;15.20;99.90;;;;;;5076950;28;20049;-88
2023/06/18 05:03:36;;;;;;;10.02;8.02;;;15.20;99.90;;;;;;5059856;28;20100;-88
2023/06/18 05:06:26;;;;;;;13.95;8.73;;;15.20;99.90;;;;;;5070958;28;20043;-89
2023/06/18 05:09:13;;;;;;;13.23;9.48;;;15.20;99.90;;;;;;5067870;28;20457;-91
2023/06/18 05:12:03;;;;;;;11.63;9.15;;;15.20;99.90;;;;;;5071869;28;20056;-87
2023/06/18 05:14:50;;;;;;;11.23;9.07;;;15.20;99.90;;;;;;5056658;28;20465;-89
2023/06/18 05:17:41;;;;;;;11.23;9.02;;;15.10;99.90;;;;;;5058003;28;20110;-90
2023/06/18 05:20:28;;;;;;;14.57;9.23;;;15.10;99.90;;;;;;5080566;28;20047;-89
2023/06/18 05:23:15;;;;;;;10.98;8.57;;;15.20;99.90;;;;;;5070914;28;20052;-90
2023/06/18 05:26:03;;;;;;;13.40;8.88;;;15.30;99.90;;;;;;5062653;28;20055;-90
2023/06/18 05:28:50;;;;;;;12.48;8.50;;;15.60;99.90;;;;;;5086327;28;20032;-91
2023/06/18 05:31:38;;;;;;;11.90;8.80;;;15.80;99.90;;;;;;5056512;28;20040;-89
2023/06/18 05:34:28;;;;;;;12.10;8.82;;;16.00;99.90;;;;;;5056651;28;20108;-88
2023/06/18 05:37:17;;;;;;;14.73;8.18;;;16.20;99.90;;;;;;5063026;28;20048;-88
2023/06/18 05:40:18;;;;;;;;;;;;;;;;;;;;;
2023/06/18 05:43:09;;;;;;;9.98;8.02;;;16.70;99.90;;;;;;5063963;28;20131;-92
2023/06/18 05:46:16;;;;;;;10.63;7.78;;;17.00;99.90;;;;;;5060687;28;20052;-92
2023/06/18 05:49:05;;;;;;;9.55;7.47;;;17.40;99.90;;;;;;5059066;28;20068;-92
2023/06/18 05:55:55;;;;;;;11.73;7.63;;;17.90;79.00;;;;;;5087114;28;19908;-92
2023/06/18 06:03:59;;;;;;;11.07;8.10;;;18.20;99.90;;;;;;5034985;28;20041;-93
2023/06/18 06:06:54;;;;;;;11.65;8.05;;;18.40;99.90;;;;;;5063504;28;20036;-91
2023/06/18 06:09:56;;;;;;;9.95;7.65;;;18.50;99.90;;;;;;5041217;28;20037;-92
2023/06/18 06:12:57;;;;;;;14.68;8.15;;;18.60;70.20;;;;;;5060516;28;20127;-92
2023/06/18 06:15:44;;;;;;;9.57;7.65;;;18.70;55.50;;;;;;5075906;28;20045;-93
2023/06/18 06:18:31;;;;;;;9.93;7.55;;;18.90;42.30;;;;;;5061281;28;20040;-92
2023/06/18 06:21:19;;;;;;;11.82;7.40;;;19.00;54.50;;;;;;5061800;28;20055;-91
2023/06/18 06:24:10;;;;;;;10.52;7.53;;;19.20;48.30;;;;;;5063805;28;20072;-92
2023/06/18 06:26:58;;;;;;;12.43;8.53;;;19.30;41.20;;;;;;5062607;28;20052;-93
2023/06/18 06:29:50;;;;;;;11.48;8.65;;;19.50;38.20;;;;;;5059385;28;20044;-92
2023/06/18 06:32:37;;;;;;;12.05;9.45;;;19.70;45.50;;;;;;5070559;28;20481;-92
2023/06/18 06:35:28;;;;;;;13.40;8.65;;;19.80;31.40;;;;;;5051199;28;20068;-91
2023/06/18 06:38:16;;;;;;;20.42;9.25;;;20.00;31.70;;;;;;5056357;28;20042;-92
2023/06/18 06:41:04;;;;;;;15.52;8.35;;;20.10;18.20;;;;;;5062507;28;20048;-91
2023/06/18 06:43:54;;;;;;;14.80;8.52;;;20.30;12.00;;;;;;5058984;28;20063;-92
2023/06/18 06:46:53;;;;;;;12.00;7.63;;;20.50;17.20;;;;;;5045684;28;20048;-94
2023/06/18 06:49:46;;;;;;;10.43;7.60;;;20.70;11.50;;;;;;5065038;28;20033;-92
2023/06/18 06:52:34;;;;;;;9.75;7.25;;;20.80;8.50;;;;;;5063522;28;20050;-91
2023/06/18 06:55:22;;;;;;;10.10;6.88;;;21.20;19.40;;;;;;5069626;28;20048;-91
2023/06/18 07:02:25;;;;;;;11.75;7.10;;;21.50;8.30;;;;;;5072201;28;20537;-91
2023/06/18 07:05:15;;;;;;;8.80;6.97;;;21.90;10.70;;;;;;5061168;28;20373;-91
2023/06/18 07:08:05;;;;;;;9.70;7.55;;;22.30;15.50;;;;;;5065651;28;20510;-91
2023/06/18 07:10:53;;;;;;;8.48;6.63;;;22.60;7.50;;;;;;5070234;28;20060;-90
2023/06/18 07:13:40;;;;;;;11.02;6.85;;;23.10;10.00;;;;;;5065393;28;20047;-92
2023/06/18 07:16:32;;;;;;;9.60;6.25;;;23.40;6.20;;;;;;5047891;28;20063;-93
2023/06/18 07:19:22;;;;;;;8.45;6.40;;;23.80;1.00;;;;;;5069880;28;20105;-94
2023/06/18 07:22:09;;;;;;;9.60;6.70;;;24.00;1.00;;;;;;5055960;28;20147;-91
2023/06/18 07:25:08;;;;;;;12.48;6.88;;;24.30;1.00;;;;;;5067817;28;20131;-91
2023/06/18 07:27:56;;;;;;;8.85;6.72;;;24.70;18.10;;;;;;5055026;28;20051;-91
2023/06/18 07:30:43;;;;;;;7.82;6.43;;;25.40;14.20;;;;;;5075830;28;20045;-92
2023/06/18 07:33:31;;;;;;;8.15;6.43;;;25.60;9.60;;;;;;5073218;28;20249;-89
2023/06/18 07:36:18;;;;;;;8.48;6.68;;;26.20;69.00;;;;;;5063686;28;20044;-89
2023/06/18 07:39:08;;;;;;;7.35;6.38;;;26.80;30.50;;;;;;5051269;28;20158;-89
2023/06/18 07:41:58;;;;;;;7.00;5.68;;;27.50;6.90;;;;;;5070294;28;20048;-89
2023/06/18 07:44:48;;;;;;;7.03;5.70;;;27.70;42.10;;;;;;5049169;28;20426;-91
2023/06/18 07:47:38;;;;;;;7.20;6.20;;;28.10;26.10;;;;;;5068560;28;20123;-90
2023/06/18 07:50:26;;;;;;;15.02;6.15;;;28.20;38.30;;;;;;5069178;28;20410;-89
2023/06/18 07:53:13;;;;;;;7.68;5.88;;;27.60;50.80;;;;;;5062545;28;20048;-89
2023/06/18 07:56:01;;;;;;;7.30;5.70;;;27.90;73.50;;;;;;5060606;28;20369;-91
2023/06/18 07:58:48;;;;;;;11.45;5.78;;;27.70;36.70;;;;;;5064031;28;20106;-89
2023/06/18 08:01:35;;;;;;;6.50;5.60;;;28.30;55.50;;;;;;5064940;28;20040;-90
2023/06/18 08:04:23;;;;;;;8.23;6.30;;;28.80;6.70;;;;;;5070826;28;20087;-90
2023/06/18 08:07:11;;;;;;;8.10;5.97;;;29.10;64.30;;;;;;5069981;28;20123;-91
2023/06/18 08:09:58;;;;;;;7.20;5.80;;;29.70;1.00;;;;;;5067720;28;20044;-90
2023/06/18 08:12:46;;;;;;;7.22;5.85;;;29.80;26.00;;;;;;5079209;28;20048;-90
2023/06/18 08:15:33;;;;;;;8.23;5.68;;;30.00;42.90;;;;;;5064351;28;20044;-89
2023/06/18 08:18:20;;;;;;;9.52;6.03;;;30.20;47.60;;;;;;5059260;28;20493;-87
2023/06/18 08:21:09;;;;;;;6.35;5.60;;;30.50;19.90;;;;;;5057075;28;20370;-86
2023/06/18 08:23:56;;;;;;;7.75;5.68;;;31.10;20.00;;;;;;5059803;28;20112;-88
2023/06/18 08:26:46;;;;;;;5.88;5.28;;;31.00;32.40;;;;;;5069776;28;20055;-87
2023/06/18 08:29:36;;;;;;;7.13;5.55;;;31.10;41.40;;;;;;5078114;28;20488;-89
2023/06/18 08:32:23;;;;;;;6.25;5.20;;;30.90;14.00;;;;;;5077019;28;20441;-87
2023/06/18 08:35:10;;;;;;;5.85;5.28;;;31.10;49.10;;;;;;5062693;28;20051;-88
2023/06/18 08:37:58;;;;;;;6.68;5.25;;;31.50;47.80;;;;;;5055129;28;20512;-87
2023/06/18 08:40:54;;;;;;;8.30;5.65;;;31.80;76.60;;;;;;5057027;28;20052;-88
2023/06/18 08:43:41;;;;;;;7.55;5.72;;;31.80;45.90;;;;;;5062558;28;20048;-88
2023/06/18 08:46:34;;;;;;;5.38;4.80;;;31.60;54.00;;;;;;5078446;28;20433;-89
2023/06/18 08:49:23;;;;;;;6.28;5.15;;;31.80;1.00;;;;;;5066738;28;20052;-89
2023/06/18 08:52:12;;;;;;;6.00;5.10;;;32.40;16.10;;;;;;5055382;28;20059;-89
2023/06/18 08:55:02;;;;;;;7.18;5.35;;;32.60;25.50;;;;;;5063477;28;20105;-88
2023/06/18 08:57:59;;;;;;;6.85;5.10;;;33.10;3.50;;;;;;5075971;28;20152;-89
2023/06/18 09:00:51;;;;;;;7.40;5.30;;;33.00;10.80;;;;;;5065260;28;20058;-87
2023/06/18 09:03:40;;;;;;;5.32;4.88;;;33.00;7.60;;;;;;5060960;28;20209;-89
2023/06/18 09:06:28;;;;;;;7.88;5.10;;;33.40;1.00;;;;;;5065109;28;20036;-89
2023/06/18 09:09:16;;;;;;;7.57;5.20;;;33.20;1.00;;;;;;5055534;28;20182;-89
2023/06/18 09:12:03;;;;;;;8.20;5.55;;;33.00;5.40;;;;;;5063431;28;20063;-89
2023/06/18 09:14:53;;;;;;;6.25;4.63;;;32.00;1.00;;;;;;5059531;28;20218;-89
2023/06/18 09:17:50;;;;;;;8.63;4.70;;;32.10;30.40;;;;;;5075616;28;20036;-89
2023/06/18 09:20:39;;;;;;;9.40;5.05;;;32.80;7.00;;;;;;5068531;28;20037;-88
2023/06/18 09:23:27;;;;;;;5.97;4.88;;;32.60;1.00;;;;;;5060723;28;20059;-92
2023/06/18 09:26:17;;;;;;;7.82;5.47;;;32.20;13.40;;;;;;5059313;28;20037;-90
2023/06/18 09:29:06;;;;;;;9.63;5.65;;;30.90;29.90;;;;;;5054461;28;20127;-88
2023/06/18 09:31:53;;;;;;;9.02;5.13;;;30.00;41.50;;;;;;5068614;28;20044;-88
2023/06/18 09:34:44;;;;;;;5.47;4.78;;;30.90;7.00;;;;;;5073446;28;20044;-88
2023/06/18 09:37:32;;;;;;;4.85;4.40;;;32.50;9.20;;;;;;5054485;28;20052;-88
2023/06/18 09:40:21;;;;;;;5.43;4.70;;;33.40;13.90;;;;;;5065557;28;20391;-87
2023/06/18 09:43:10;;;;;;;6.22;4.97;;;34.20;10.60;;;;;;5065959;28;20044;-89
2023/06/18 09:45:58;;;;;;;5.90;4.70;;;34.10;1.00;;;;;;5065433;28;20175;-85
2023/06/18 09:48:46;;;;;;;7.10;4.80;;;33.60;8.10;;;;;;5076664;28;20148;-87
2023/06/18 09:51:41;;;;;;;9.35;4.75;;;33.00;5.30;;;;;;5067816;28;20052;-87
2023/06/18 09:54:39;;;;;;;9.95;5.65;;;33.50;1.00;;;;;;5071423;28;20049;-88
2023/06/18 09:57:26;;;;;;;7.63;4.82;;;33.80;1.50;;;;;;5050689;28;20120;-90
2023/06/18 10:00:15;;;;;;;5.65;5.03;;;33.50;1.00;;;;;;5060896;28;20045;-89
2023/06/18 10:03:08;;;;;;;5.80;5.25;;;34.10;18.20;;;;;;5063091;28;20140;-87
2023/06/18 10:06:07;;;;;;;5.32;4.55;;;34.50;9.60;;;;;;5063192;28;20051;-89
2023/06/18 10:08:58;;;;;;;6.75;5.13;;;34.60;12.10;;;;;;5056877;28;20044;-88
2023/06/18 10:11:51;;;;;;;6.68;5.03;;;35.30;5.50;;;;;;5077980;28;20033;-87
2023/06/18 10:14:43;;;;;;;6.90;4.65;;;35.80;1.00;;;;;;5073430;28;20033;-87
2023/06/18 10:17:35;;;;;;;7.18;4.50;;;36.60;1.90;;;;;;5078591;28;20043;-88
2023/06/18 10:20:26;;;;;;;6.45;5.25;;;36.80;7.00;;;;;;5081502;28;20041;-89
2023/06/18 10:23:14;;;;;;;6.05;4.82;;;36.10;29.30;;;;;;5071786;28;20044;-89
2023/06/18 10:26:02;;;;;;;5.55;4.32;;;36.40;61.90;;;;;;5072380;28;20362;-88
2023/06/18 10:28:53;;;;;;;6.07;5.00;;;36.10;27.90;;;;;;5062385;28;20052;-88
2023/06/18 10:31:41;;;;;;;7.55;4.68;;;35.10;39.70;;;;;;5075649;28;20106;-86
2023/06/18 10:34:37;;;;;;;6.57;4.50;;;35.60;44.80;;;;;;5072868;28;20362;-87
2023/06/18 10:37:26;;;;;;;6.63;4.65;;;35.90;54.20;;;;;;5070801;28;20048;-88
2023/06/18 10:40:14;;;;;;;4.90;4.40;;;35.80;63.90;;;;;;5067802;28;20125;-89
2023/06/18 10:43:08;;;;;;;6.20;4.90;;;36.00;99.90;;;;;;5063455;28;20056;-90
2023/06/18 10:46:12;;;;;;;6.85;5.00;;;35.20;78.20;;;;;;5049781;28;20479;-88
2023/06/18 10:49:20;;;;;;;5.32;4.70;;;35.70;99.90;;;;;;5080734;28;20119;-90
2023/06/18 10:52:14;;;;;;;6.68;5.68;;;35.00;99.90;;;;;;5071799;28;20063;-90
2023/06/18 10:55:21;;;;;;;7.32;4.95;;;34.60;99.90;;;;;;5066769;28;20052;-87
2023/06/18 10:58:09;;;;;;;5.68;4.95;;;33.80;61.30;;;;;;5062000;28;20048;-89
2023/06/18 11:00:58;;;;;;;6.05;4.38;;;34.00;67.70;;;;;;5060947;28;20049;-87
2023/06/18 11:03:49;;;;;;;5.55;4.85;;;35.40;88.20;;;;;;5076136;28;20035;-89
2023/06/18 11:06:37;;;;;;;6.50;4.35;;;36.60;99.90;;;;;;5072927;28;20029;-92
2023/06/18 11:09:25;;;;;;;6.00;4.80;;;37.80;92.20;;;;;;5056203;28;20045;-88
2023/06/18 11:12:26;;;;;;;4.85;4.35;;;38.20;99.90;;;;;;5067701;28;20044;-88
2023/06/18 11:15:18;;;;;;;4.88;4.35;;;38.10;99.90;;;;;;5075835;28;20040;-90
2023/06/18 11:18:05;;;;;;;;;;;37.70;59.10;;;;;;5077583;28;20106;-89
2023/06/18 11:20:56;;;;;;;4.97;4.22;;;38.30;81.90;;;;;;5077194;28;19921;-89
2023/06/18 11:23:44;;;;;;;4.80;4.40;;;39.10;51.40;;;;;;5058772;28;20036;-89
2023/06/18 11:26:32;;;;;;;4.85;4.40;;;38.70;40.60;;;;;;5063604;28;20094;-88
2023/06/18 11:29:20;;;;;;;5.95;4.22;;;39.10;64.20;;;;;;5069330;28;20068;-88
2023/06/18 11:32:16;;;;;;;5.07;4.03;;;39.10;22.80;;;;;;5055040;28;20037;-89
2023/06/18 11:35:08;;;;;;;6.30;4.40;;;39.00;58.60;;;;;;5073757;28;20044;-88
2023/06/18 11:37:55;;;;;;;5.63;4.30;;;39.00;53.90;;;;;;5070408;28;20041;-88
2023/06/18 11:40:54;;;;;;;4.20;3.80;;;39.50;38.00;;;;;;5048758;28;20076;-90
2023/06/18 11:43:55;;;;;;;5.05;4.30;;;39.40;24.00;;;;;;5069907;28;20048;-89
2023/06/18 11:46:42;;;;;;;6.03;4.18;;;39.40;28.50;;;;;;5056332;28;20048;-88
2023/06/18 11:49:30;;;;;;;4.32;3.92;;;38.90;28.60;;;;;;5069938;28;20067;-90
2023/06/18 11:52:19;;;;;;;5.95;4.90;;;38.70;54.00;;;;;;5060553;28;20040;-89
2023/06/18 11:55:07;;;;;;;4.63;4.13;;;38.40;18.30;;;;;;5061857;28;20094;-88
2023/06/18 11:57:59;;;;;;;4.50;3.90;;;39.00;1.00;;;;;;5069729;28;20473;-91
2023/06/18 12:00:47;;;;;;;6.28;4.40;;;38.90;1.50;;;;;;5049113;28;20056;-91
2023/06/18 12:03:37;;;;;;;4.68;4.13;;;39.00;18.40;;;;;;5071296;28;20470;-88
2023/06/18 12:06:26;;;;;;;4.45;4.05;;;38.50;99.90;;;;;;5074279;28;20049;-88
2023/06/18 12:09:14;;;;;;;5.78;4.07;;;39.60;99.90;;;;;;5074595;28;20041;-89
2023/06/18 12:12:34;;;;;;;6.63;3.70;;;40.60;99.90;;;;;;5057015;28;20616;-87
2023/06/18 12:15:42;;;;;;;4.40;4.00;;;41.00;99.90;;;;;;5042599;28;20049;-90
2023/06/18 12:18:34;;;;;;;6.55;4.10;;;39.90;99.90;;;;;;5062813;28;20036;-87
2023/06/18 12:21:22;;;;;;;4.47;4.03;;;39.80;99.90;;;;;;5074959;28;20040;-89
2023/06/18 12:24:12;;;;;;;4.25;3.85;;;40.50;99.90;;;;;;5074439;28;20477;-88
2023/06/18 12:27:04;;;;;;;4.15;3.75;;;39.80;99.90;;;;;;5057777;28;20133;-92
2023/06/18 12:29:59;;;;;;;5.25;4.13;;;40.10;99.90;;;;;;5075063;28;20510;-87
2023/06/18 12:33:06;;;;;;;6.53;3.45;;;40.10;99.90;;;;;;5051195;28;20058;-90
2023/06/18 12:35:56;;;;;;;4.43;3.83;;;39.60;99.90;;;;;;5058812;28;20408;-88
2023/06/18 12:38:45;;;;;;;7.97;4.28;;;39.60;99.90;;;;;;5055769;28;20054;-88
2023/06/18 12:41:36;;;;;;;4.18;3.78;;;39.20;4.50;;;;;;5070467;28;20044;-87
2023/06/18 12:44:27;;;;;;;5.32;3.65;;;39.00;6.60;;;;;;5073600;28;20045;-88
2023/06/18 12:47:16;;;;;;;;;;;38.20;99.90;;;;;;5061782;28;20429;-89
2023/06/18 12:50:04;;;;;;;7.55;4.13;;;36.60;99.90;;;;;;5059951;28;20202;-88
2023/06/18 12:52:54;;;;;;;5.00;4.13;;;36.00;99.90;;;;;;5074463;28;20063;-90
2023/06/18 12:55:42;;;;;;;7.53;4.00;;;35.80;99.90;;;;;;5071089;28;20401;-87
2023/06/18 12:58:34;;;;;;;4.53;4.07;;;36.20;99.90;;;;;;5066800;28;20044;-89
2023/06/18 13:01:23;;;;;;;3.72;3.28;;;36.10;99.90;;;;;;5074524;28;20471;-86
2023/06/18 13:04:13;;;;;;;3.63;3.00;;;36.30;99.90;;;;;;5050323;28;20050;-89
2023/06/18 13:07:01;;;;;;;3.40;3.10;;;36.20;99.90;;;;;;5074328;28;20546;-89
2023/06/18 13:09:50;;;;;;;3.22;2.97;;;36.60;99.90;;;;;;5061854;28;20045;-88
2023/06/18 13:12:38;;;;;;;3.63;3.33;;;36.80;99.90;;;;;;5063547;28;20056;-87
2023/06/18 13:15:28;;;;;;;3.33;3.00;;;36.10;24.20;;;;;;5057339;28;20040;-88
2023/06/18 13:18:19;;;;;;;3.90;3.38;;;36.00;17.60;;;;;;5068170;28;20066;-89
2023/06/18 13:21:06;;;;;;;4.03;3.30;;;35.40;51.80;;;;;;5053893;28;20493;-89
2023/06/18 13:23:53;;;;;;;3.67;3.28;;;35.00;9.20;;;;;;5054572;28;20044;-90
2023/06/18 13:26:43;;;;;;;4.40;3.53;;;35.30;22.50;;;;;;5077042;28;20051;-90
2023/06/18 13:29:30;;;;;;;3.83;3.53;;;36.80;93.60;;;;;;5065851;28;20131;-88
2023/06/18 13:32:17;;;;;;;4.70;3.20;;;37.50;99.90;;;;;;5077860;28;20038;-90
2023/06/18 13:35:06;;;;;;;4.55;3.72;;;38.10;99.90;;;;;;5078727;28;20044;-89
2023/06/18 13:37:53;;;;;;;3.42;3.13;;;38.20;41.40;;;;;;5072298;28;20041;-88
2023/06/18 13:40:44;;;;;;;3.67;3.28;;;38.50;35.60;;;;;;5058468;28;20106;-88
2023/06/18 13:43:31;;;;;;;4.07;3.33;;;38.50;67.50;;;;;;5070080;28;20044;-88
2023/06/18 13:46:18;;;;;;;3.78;3.47;;;38.00;49.80;;;;;;5059743;28;20052;-90
2023/06/18 13:49:06;;;;;;;3.85;3.42;;;38.50;42.70;;;;;;5075178;28;20036;-93
2023/06/18 13:51:53;;;;;;;3.25;2.95;;;36.80;59.40;;;;;;5052369;28;20049;-90
2023/06/18 13:54:40;;;;;;;4.43;3.20;;;36.80;60.00;;;;;;5057498;28;20044;-87
2023/06/18 13:57:28;;;;;;;5.40;3.55;;;36.40;35.90;;;;;;5070704;28;20056;-89
2023/06/18 14:00:16;;;;;;;9.05;7.25;;;36.40;55.60;;;;;;5071741;28;20048;-89
2023/06/18 14:03:04;;;;;;;5.45;3.90;;;36.10;56.40;;;;;;5071004;28;20114;-91
2023/06/18 14:05:51;;;;;;;8.48;7.57;;;35.40;84.20;;;;;;5070290;28;20073;-89
2023/06/18 14:08:42;;;;;;;3.78;3.47;;;34.50;57.70;;;;;;5070122;28;20119;-88
2023/06/18 14:11:29;;;;;;;4.85;4.38;;;32.90;63.30;;;;;;5078428;28;20045;-86
2023/06/18 14:14:19;;;;;;;4.40;4.00;;;32.60;97.90;;;;;;5064303;28;20389;-87
2023/06/18 14:17:10;;;;;;;5.47;4.22;;;33.50;85.50;;;;;;5053623;28;20058;-88
2023/06/18 14:19:57;;;;;;;4.78;3.70;;;35.20;75.10;;;;;;5063993;28;20135;-89
2023/06/18 14:22:45;;;;;;;4.57;3.75;;;36.00;99.90;;;;;;5058433;28;20044;-88
2023/06/18 14:25:32;;;;;;;4.85;4.22;;;37.40;77.90;;;;;;5073551;28;20465;-88
2023/06/18 14:28:21;;;;;;;5.38;4.03;;;38.10;94.50;;;;;;5049837;28;20128;-89
2023/06/18 14:31:08;;;;;;;5.32;4.03;;;38.70;92.80;;;;;;5076730;28;20044;-86
2023/06/18 14:33:55;;;;;;;4.30;4.00;;;39.20;96.70;;;;;;5074963;28;20052;-88
2023/06/18 14:36:55;;;;;;;6.63;4.90;;;37.20;90.50;;;;;;5068381;28;20044;-90
2023/06/18 14:39:43;;;;;;;4.70;4.25;;;37.50;99.90;;;;;;5057455;28;20044;-89
2023/06/18 14:42:32;;;;;;;4.32;3.92;;;37.50;78.30;;;;;;5081569;28;20044;-88
2023/06/18 14:45:19;;;;;;;5.75;4.55;;;37.40;84.70;;;;;;5077221;28;20058;-88
2023/06/18 14:48:07;;;;;;;5.20;4.68;;;37.90;96.60;;;;;;5072670;28;20044;-87
2023/06/18 14:50:54;;;;;;;9.18;4.68;;;37.40;80.00;;;;;;5084475;28;20080;-89
2023/06/18 14:53:48;;;;;;;6.45;4.57;;;37.80;92.60;;;;;;5079757;28;20786;-88
2023/06/18 14:56:36;;;;;;;4.63;4.22;;;37.50;99.90;;;;;;5077399;28;20040;-89
2023/06/18 14:59:23;;;;;;;4.90;4.50;;;36.90;92.20;;;;;;5076405;28;20141;-91
2023/06/18 15:02:14;;;;;;;7.55;4.80;;;37.10;91.80;;;;;;5059932;28;20051;-88
2023/06/18 15:05:16;;;;;;;5.43;4.82;;;36.70;99.90;;;;;;5067413;28;20045;-88
2023/06/18 15:08:04;;;;;;;7.10;5.20;;;35.90;68.90;;;;;;5071009;28;20041;-89
2023/06/18 15:10:51;;;;;;;6.47;5.32;;;35.00;69.00;;;;;;5057844;28;20498;-89
2023/06/18 15:13:39;;;;;;;6.20;5.32;;;34.70;76.00;;;;;;5054957;28;20438;-88
2023/06/18 15:16:28;;;;;;;5.68;5.18;;;35.20;78.50;;;;;;5074132;28;20071;-89
2023/06/18 15:19:16;;;;;;;6.00;5.40;;;35.80;94.60;;;;;;5058336;28;20063;-88
2023/06/18 15:22:05;;;;;;;8.95;7.40;;;36.00;99.90;;;;;;5064431;28;20052;-88
2023/06/18 15:24:53;;;;;;;9.05;5.65;;;34.30;66.80;;;;;;5056955;28;20040;-90